Time;durP1;ratioP1;P1;durP2;ratioP2;P2;SDS_P1;SDS_P2;PMS_P1;PMS_P2;Temp;Humidity;BMP_temperature;BMP_pressure;BME280_temperature;BME280_humidity;BME280_pressure;Samples;Min_cycle;Max_cycle;Signal;HPM_P1;HPM_P2
2022/09/19 00:01:30;;;;;;;1.00;0.85;;;;;;;;;;4915734;29;20044;-65
2022/09/19 00:04:20;;;;;;;1.00;0.90;;;;;;;;;;4915991;29;20429;-65
2022/09/19 00:06:48;;;;;;;4.13;0.90;;;;;;;;;;4911209;29;20044;-66
2022/09/19 00:09:17;;;;;;;1.85;1.00;;;;;;;;;;4916100;29;20111;-65
2022/09/19 00:11:44;;;;;;;1.20;0.80;;;;;;;;;;4914102;29;20076;-66
2022/09/19 00:14:14;;;;;;;1.70;1.00;;;;;;;;;;4915458;29;20028;-64
2022/09/19 00:16:42;;;;;;;1.20;1.10;;;;;;;;;;4916002;29;20119;-65
2022/09/19 00:19:10;;;;;;;1.63;1.02;;;;;;;;;;4916258;29;20032;-65
2022/09/19 00:21:38;;;;;;;1.42;1.10;;;;;;;;;;4916228;29;20024;-65
2022/09/19 00:26:55;;;;;;;1.42;1.00;;;;;;;;;;4916216;29;20062;-64
2022/09/19 00:29:22;;;;;;;2.17;1.05;;;;;;;;;;4915894;29;20460;-65
2022/09/19 00:31:48;;;;;;;1.15;1.05;;;;;;;;;;4915870;29;20028;-65
2022/09/19 00:34:15;;;;;;;1.38;0.90;;;;;;;;;;4914726;29;20024;-66
2022/09/19 00:36:42;;;;;;;2.78;0.73;;;;;;;;;;4916091;29;20028;-65
2022/09/19 00:39:09;;;;;;;1.52;1.20;;;;;;;;;;4915810;29;20035;-65
2022/09/19 00:41:36;;;;;;;1.60;0.95;;;;;;;;;;4914608;29;20040;-65
2022/09/19 00:44:05;;;;;;;1.17;1.08;;;;;;;;;;4915854;29;20024;-66
2022/09/19 00:46:33;;;;;;;0.68;0.68;;;;;;;;;;4914690;29;20028;-65
2022/09/19 00:49:07;;;;;;;2.25;0.85;;;;;;;;;;4919387;29;20039;-65
2022/09/19 00:51:36;;;;;;;0.70;0.70;;;;;;;;;;4919161;29;20556;-65
2022/09/19 00:54:07;;;;;;;0.70;0.70;;;;;;;;;;4919416;29;20388;-64
2022/09/19 00:56:33;;;;;;;1.10;1.00;;;;;;;;;;4919458;29;20025;-65
2022/09/19 00:59:01;;;;;;;0.95;0.80;;;;;;;;;;4919043;29;20115;-66
2022/09/19 01:01:27;;;;;;;1.17;0.88;;;;;;;;;;4919352;29;20040;-66
2022/09/19 01:03:53;;;;;;;1.23;0.90;;;;;;;;;;4918967;29;20055;-67
2022/09/19 01:06:34;;;;;;;1.05;0.90;;;;;;;;;;4918881;29;20110;-66
2022/09/19 01:09:02;;;;;;;0.88;0.88;;;;;;;;;;4918889;29;20032;-66
2022/09/19 01:11:39;;;;;;;0.85;0.80;;;;;;;;;;4918668;29;20060;-67
2022/09/19 01:14:31;;;;;;;0.73;0.73;;;;;;;;;;4917614;29;20039;-66
2022/09/19 01:17:08;;;;;;;1.00;0.90;;;;;;;;;;4917783;29;20036;-65
2022/09/19 01:19:54;;;;;;;0.98;0.75;;;;;;;;;;4918720;29;20040;-66
2022/09/19 01:22:56;;;;;;;0.60;0.60;;;;;;;;;;4918970;29;20028;-66
2022/09/19 01:25:40;;;;;;;0.85;0.70;;;;;;;;;;4918902;29;20036;-66
2022/09/19 01:28:27;;;;;;;1.25;1.15;;;;;;;;;;4918548;29;20059;-65
2022/09/19 01:31:17;;;;;;;0.93;0.77;;;;;;;;;;4918700;29;20040;-65
2022/09/19 01:33:50;;;;;;;0.95;0.85;;;;;;;;;;4918290;29;20044;-65
2022/09/19 01:36:17;;;;;;;1.38;0.80;;;;;;;;;;4918705;29;20028;-64
2022/09/19 01:38:46;;;;;;;1.20;0.70;;;;;;;;;;4918490;29;20484;-61
2022/09/19 01:41:13;;;;;;;1.05;0.90;;;;;;;;;;4918603;29;20384;-66
2022/09/19 01:43:38;;;;;;;0.75;0.75;;;;;;;;;;4918374;29;20028;-63
2022/09/19 01:46:25;;;;;;;1.08;0.90;;;;;;;;;;4918391;29;20067;-64
2022/09/19 01:49:13;;;;;;;2.00;0.70;;;;;;;;;;4918547;29;20043;-64
2022/09/19 01:51:49;;;;;;;1.08;0.80;;;;;;;;;;4916916;29;20028;-64
2022/09/19 01:54:17;;;;;;;0.80;0.70;;;;;;;;;;4918453;29;20357;-63
2022/09/19 01:57:00;;;;;;;0.98;0.80;;;;;;;;;;4918297;29;20028;-64
2022/09/19 02:00:16;;;;;;;1.17;0.77;;;;;;;;;;4917703;29;20042;-64
2022/09/19 02:03:11;;;;;;;0.80;0.80;;;;;;;;;;4895962;29;20047;-66
2022/09/19 02:05:54;;;;;;;1.30;0.80;;;;;;;;;;4912473;29;20036;-66
2022/09/19 02:08:39;;;;;;;2.17;0.98;;;;;;;;;;4918153;29;20024;-65
2022/09/19 02:11:14;;;;;;;3.97;0.90;;;;;;;;;;4917796;29;20031;-66
2022/09/19 02:13:44;;;;;;;1.15;1.05;;;;;;;;;;4918094;29;20054;-66
2022/09/19 02:16:36;;;;;;;0.98;0.70;;;;;;;;;;4918014;29;20032;-65
2022/09/19 02:19:25;;;;;;;0.60;0.60;;;;;;;;;;4913205;29;20044;-64
2022/09/19 02:21:58;;;;;;;2.13;0.85;;;;;;;;;;4917583;29;20064;-64
2022/09/19 02:24:32;;;;;;;0.93;0.90;;;;;;;;;;4917900;29;20074;-64
2022/09/19 02:27:08;;;;;;;1.45;0.70;;;;;;;;;;4917866;29;20063;-64
2022/09/19 02:29:45;;;;;;;1.02;0.82;;;;;;;;;;4917366;29;20132;-65
2022/09/19 02:32:11;;;;;;;1.10;0.80;;;;;;;;;;4917171;29;20127;-63
2022/09/19 02:34:37;;;;;;;1.80;0.60;;;;;;;;;;4917437;29;20115;-65
2022/09/19 02:37:12;;;;;;;0.75;0.75;;;;;;;;;;4917624;29;20495;-64
2022/09/19 02:40:05;;;;;;;1.52;0.60;;;;;;;;;;4917268;29;20040;-62
2022/09/19 02:43:14;;;;;;;2.70;0.70;;;;;;;;;;4917260;29;20063;-60
2022/09/19 02:45:50;;;;;;;0.77;0.77;;;;;;;;;;4917198;29;20038;-59
2022/09/19 02:48:16;;;;;;;0.70;0.70;;;;;;;;;;4917400;29;20425;-60
2022/09/19 02:50:48;;;;;;;0.73;0.70;;;;;;;;;;4917319;29;20024;-64
2022/09/19 02:53:24;;;;;;;0.55;0.55;;;;;;;;;;4916899;29;20028;-63
2022/09/19 02:55:55;;;;;;;0.65;0.60;;;;;;;;;;4917265;29;20024;-63
2022/09/19 02:58:22;;;;;;;2.42;0.73;;;;;;;;;;4917214;29;20076;-63
2022/09/19 03:00:54;;;;;;;2.33;0.70;;;;;;;;;;4916809;29;20408;-64
2022/09/19 03:06:14;;;;;;;0.60;0.60;;;;;;;;;;4917154;29;20091;-63
2022/09/19 03:08:45;;;;;;;0.95;0.70;;;;;;;;;;4915953;29;20099;-63
2022/09/19 03:11:16;;;;;;;0.65;0.60;;;;;;;;;;4916463;29;20058;-65
2022/09/19 03:13:42;;;;;;;0.52;0.52;;;;;;;;;;4916688;29;20032;-63
2022/09/19 03:16:14;;;;;;;1.90;0.40;;;;;;;;;;4916956;29;20024;-64
2022/09/19 03:18:42;;;;;;;1.08;0.80;;;;;;;;;;4916938;29;20076;-62
2022/09/19 03:21:10;;;;;;;0.50;0.50;;;;;;;;;;4916903;29;20035;-63
2022/09/19 03:23:44;;;;;;;0.95;0.80;;;;;;;;;;4916576;29;20051;-63
2022/09/19 03:26:19;;;;;;;0.70;0.70;;;;;;;;;;4916485;29;20433;-63
2022/09/19 03:28:45;;;;;;;0.65;0.65;;;;;;;;;;4916507;29;20568;-64
2022/09/19 03:31:10;;;;;;;0.60;0.60;;;;;;;;;;4916525;29;20106;-63
2022/09/19 03:33:36;;;;;;;0.60;0.60;;;;;;;;;;4916233;29;20107;-63
2022/09/19 03:36:07;;;;;;;1.10;0.50;;;;;;;;;;4916705;29;20032;-63
2022/09/19 03:38:45;;;;;;;1.38;0.80;;;;;;;;;;4916678;29;20031;-64
2022/09/19 03:41:19;;;;;;;0.70;0.70;;;;;;;;;;4916686;29;20052;-64
2022/09/19 03:43:44;;;;;;;0.85;0.60;;;;;;;;;;4916649;29;20032;-64
2022/09/19 03:46:15;;;;;;;0.63;0.50;;;;;;;;;;4916610;29;20020;-65
2022/09/19 03:48:44;;;;;;;1.00;0.80;;;;;;;;;;4916616;29;20024;-64
2022/09/19 03:51:11;;;;;;;0.60;0.60;;;;;;;;;;4916286;29;20039;-64
2022/09/19 03:53:36;;;;;;;0.65;0.60;;;;;;;;;;4916365;29;20036;-64
2022/09/19 03:56:03;;;;;;;0.75;0.60;;;;;;;;;;4916509;29;20516;-64
2022/09/19 03:58:30;;;;;;;0.60;0.60;;;;;;;;;;4916164;29;20115;-64
2022/09/19 04:00:56;;;;;;;0.60;0.60;;;;;;;;;;4916431;29;20031;-64
2022/09/19 04:03:23;;;;;;;1.00;0.70;;;;;;;;;;4916369;29;20036;-64
2022/09/19 04:05:51;;;;;;;0.43;0.43;;;;;;;;;;4916339;29;20051;-64
2022/09/19 04:08:16;;;;;;;0.73;0.73;;;;;;;;;;4916334;29;20032;-61
2022/09/19 04:10:42;;;;;;;1.05;0.52;;;;;;;;;;4916053;29;20106;-63
2022/09/19 04:13:09;;;;;;;0.60;0.60;;;;;;;;;;4916143;29;20032;-64
2022/09/19 04:15:34;;;;;;;0.63;0.63;;;;;;;;;;4916261;29;20038;-63
2022/09/19 04:18:01;;;;;;;0.50;0.50;;;;;;;;;;4915891;29;20472;-64
2022/09/19 04:20:29;;;;;;;0.68;0.60;;;;;;;;;;4916131;29;20035;-64
2022/09/19 04:22:59;;;;;;;4.40;0.80;;;;;;;;;;4919942;29;20031;-62
2022/09/19 04:25:28;;;;;;;0.70;0.60;;;;;;;;;;4919945;29;20068;-64
2022/09/19 04:27:54;;;;;;;0.60;0.60;;;;;;;;;;4919974;29;20062;-64
2022/09/19 04:30:23;;;;;;;0.50;0.50;;;;;;;;;;4919629;29;20540;-64
2022/09/19 04:32:48;;;;;;;0.70;0.70;;;;;;;;;;4919238;29;20052;-65
2022/09/19 04:35:14;;;;;;;0.52;0.50;;;;;;;;;;4919472;29;20032;-63
2022/09/19 04:37:39;;;;;;;0.50;0.50;;;;;;;;;;4919491;29;20067;-62
2022/09/19 04:40:05;;;;;;;1.08;0.60;;;;;;;;;;4919633;29;20035;-64
2022/09/19 04:42:32;;;;;;;0.55;0.55;;;;;;;;;;4919358;29;20027;-64
2022/09/19 04:44:57;;;;;;;0.70;0.70;;;;;;;;;;4919397;29;20500;-63
2022/09/19 04:47:23;;;;;;;0.90;0.60;;;;;;;;;;4919414;29;20107;-64
2022/09/19 04:49:48;;;;;;;0.68;0.60;;;;;;;;;;4919532;29;20437;-65
2022/09/19 04:52:14;;;;;;;0.88;0.63;;;;;;;;;;4919388;29;20040;-63
2022/09/19 04:54:41;;;;;;;0.70;0.70;;;;;;;;;;4919111;29;20056;-63
2022/09/19 04:57:07;;;;;;;0.60;0.60;;;;;;;;;;4919119;29;20114;-63
2022/09/19 04:59:34;;;;;;;0.60;0.60;;;;;;;;;;4919000;29;20043;-63
2022/09/19 05:02:01;;;;;;;0.60;0.60;;;;;;;;;;4918995;29;20036;-65
2022/09/19 05:04:27;;;;;;;3.28;0.68;;;;;;;;;;4918989;29;20028;-63
2022/09/19 05:06:53;;;;;;;0.80;0.70;;;;;;;;;;4919257;29;20115;-64
2022/09/19 05:09:18;;;;;;;0.95;0.60;;;;;;;;;;4919104;29;20548;-63
2022/09/19 05:11:46;;;;;;;1.00;0.90;;;;;;;;;;4918823;29;20495;-64
2022/09/19 05:14:13;;;;;;;0.75;0.60;;;;;;;;;;4919038;29;20024;-62
2022/09/19 05:16:40;;;;;;;1.38;0.73;;;;;;;;;;4918691;29;20469;-64
2022/09/19 05:19:06;;;;;;;0.80;0.80;;;;;;;;;;4919108;29;20056;-62
2022/09/19 05:21:33;;;;;;;0.77;0.77;;;;;;;;;;4918720;29;20480;-60
2022/09/19 05:24:01;;;;;;;0.68;0.68;;;;;;;;;;4918927;29;20024;-60
2022/09/19 05:26:28;;;;;;;0.65;0.60;;;;;;;;;;4918553;29;20480;-64
2022/09/19 05:28:54;;;;;;;2.40;0.90;;;;;;;;;;4918588;29;20461;-65
2022/09/19 05:31:20;;;;;;;0.50;0.50;;;;;;;;;;4918767;29;20034;-63
2022/09/19 05:33:48;;;;;;;1.00;0.70;;;;;;;;;;4917438;29;20055;-60
2022/09/19 05:36:14;;;;;;;0.95;0.70;;;;;;;;;;4918425;29;20472;-61
2022/09/19 05:38:40;;;;;;;1.75;0.70;;;;;;;;;;4918401;29;20032;-64
2022/09/19 05:41:05;;;;;;;0.50;0.50;;;;;;;;;;4918338;29;20428;-62
2022/09/19 05:43:32;;;;;;;1.25;0.80;;;;;;;;;;4918496;29;20035;-64
2022/09/19 05:45:58;;;;;;;0.73;0.70;;;;;;;;;;4918252;29;20096;-64
2022/09/19 05:48:25;;;;;;;0.65;0.65;;;;;;;;;;4918169;29;20429;-64
2022/09/19 05:50:52;;;;;;;2.10;0.80;;;;;;;;;;4918116;29;20115;-64
2022/09/19 05:56:04;;;;;;;1.17;0.60;;;;;;;;;;4918414;29;20115;-62
2022/09/19 05:58:30;;;;;;;0.70;0.70;;;;;;;;;;4918350;29;20055;-65
2022/09/19 06:00:56;;;;;;;0.80;0.70;;;;;;;;;;4918272;29;20020;-65
2022/09/19 06:03:22;;;;;;;1.88;0.95;;;;;;;;;;4918006;29;20052;-64
2022/09/19 06:05:51;;;;;;;0.70;0.70;;;;;;;;;;4918222;29;20112;-63
2022/09/19 06:08:21;;;;;;;0.60;0.60;;;;;;;;;;4917857;29;20516;-64
2022/09/19 06:10:47;;;;;;;1.15;0.80;;;;;;;;;;4917816;29;20040;-63
2022/09/19 06:13:21;;;;;;;0.60;0.60;;;;;;;;;;4918010;29;20028;-60
2022/09/19 06:15:47;;;;;;;1.15;0.60;;;;;;;;;;4918058;29;20032;-61
2022/09/19 06:18:13;;;;;;;0.40;0.40;;;;;;;;;;4917694;29;20469;-60
2022/09/19 06:20:43;;;;;;;1.48;0.63;;;;;;;;;;4917899;29;20032;-62
2022/09/19 06:23:10;;;;;;;;;;;;;;;;;;4918296;29;20103;-63
2022/09/19 06:25:38;;;;;;;1.17;0.52;;;;;;;;;;4917539;29;19915;-60
2022/09/19 06:28:13;;;;;;;0.45;0.45;;;;;;;;;;4917550;29;20032;-62
2022/09/19 06:30:38;;;;;;;0.60;0.60;;;;;;;;;;4917520;29;20541;-60
2022/09/19 06:33:07;;;;;;;2.30;0.80;;;;;;;;;;4917101;29;20095;-63
2022/09/19 06:35:33;;;;;;;0.60;0.60;;;;;;;;;;4917621;29;20448;-65
2022/09/19 06:38:00;;;;;;;0.80;0.73;;;;;;;;;;4917577;29;20028;-64
2022/09/19 06:40:27;;;;;;;0.75;0.60;;;;;;;;;;4917568;29;20075;-60
2022/09/19 06:43:01;;;;;;;1.02;0.70;;;;;;;;;;4915977;29;20028;-63
2022/09/19 06:45:35;;;;;;;1.00;0.60;;;;;;;;;;4917527;29;20103;-61
2022/09/19 06:48:01;;;;;;;1.65;0.70;;;;;;;;;;4917197;29;20495;-60
2022/09/19 06:50:27;;;;;;;1.48;0.60;;;;;;;;;;4917035;29;20028;-63
2022/09/19 06:52:55;;;;;;;0.52;0.52;;;;;;;;;;4915644;29;20063;-65
2022/09/19 06:55:23;;;;;;;0.90;0.70;;;;;;;;;;4916962;29;20531;-65
2022/09/19 06:57:54;;;;;;;4.32;0.60;;;;;;;;;;4916961;29;20040;-64
2022/09/19 07:00:22;;;;;;;1.20;0.50;;;;;;;;;;4917176;29;20028;-64
2022/09/19 07:02:48;;;;;;;0.57;0.50;;;;;;;;;;4917044;29;20064;-64
2022/09/19 07:05:13;;;;;;;0.75;0.70;;;;;;;;;;4916740;29;20615;-64
2022/09/19 07:07:39;;;;;;;0.60;0.60;;;;;;;;;;4916958;29;20032;-64
2022/09/19 07:10:05;;;;;;;0.50;0.50;;;;;;;;;;4916679;29;20035;-64
2022/09/19 07:12:30;;;;;;;0.60;0.60;;;;;;;;;;4916609;29;20480;-65
2022/09/19 07:14:56;;;;;;;0.50;0.50;;;;;;;;;;4916616;29;20037;-65
2022/09/19 07:17:21;;;;;;;1.40;0.47;;;;;;;;;;4916701;29;20036;-65
2022/09/19 07:19:47;;;;;;;0.50;0.50;;;;;;;;;;4916885;29;20020;-66
2022/09/19 07:22:14;;;;;;;0.85;0.63;;;;;;;;;;4916613;29;20503;-65
2022/09/19 07:24:39;;;;;;;0.70;0.70;;;;;;;;;;4916555;29;20047;-65
2022/09/19 07:27:05;;;;;;;1.25;0.60;;;;;;;;;;4916492;29;20029;-66
2022/09/19 07:29:30;;;;;;;0.55;0.55;;;;;;;;;;4916732;29;20487;-61
2022/09/19 07:31:56;;;;;;;0.50;0.50;;;;;;;;;;4916319;29;20058;-64
2022/09/19 07:34:22;;;;;;;0.70;0.70;;;;;;;;;;4916459;29;20068;-65
2022/09/19 07:36:47;;;;;;;0.55;0.55;;;;;;;;;;4916434;29;20024;-60
2022/09/19 07:39:13;;;;;;;0.75;0.60;;;;;;;;;;4916354;29;20079;-62
2022/09/19 07:41:38;;;;;;;0.60;0.60;;;;;;;;;;4916237;29;20036;-60
2022/09/19 07:44:04;;;;;;;0.50;0.50;;;;;;;;;;4916418;29;20413;-64
2022/09/19 07:46:29;;;;;;;0.47;0.47;;;;;;;;;;4916290;29;20032;-63
2022/09/19 07:48:54;;;;;;;0.52;0.52;;;;;;;;;;4916638;29;20024;-60
2022/09/19 07:51:20;;;;;;;0.45;0.45;;;;;;;;;;4916177;29;20036;-61
2022/09/19 07:53:46;;;;;;;1.48;0.57;;;;;;;;;;4916077;29;20032;-60
2022/09/19 07:56:12;;;;;;;0.45;0.45;;;;;;;;;;4916069;29;20032;-64
2022/09/19 07:58:38;;;;;;;0.50;0.50;;;;;;;;;;4916066;29;20028;-64
2022/09/19 08:01:04;;;;;;;0.60;0.60;;;;;;;;;;4916299;29;20032;-63
2022/09/19 08:03:30;;;;;;;0.57;0.57;;;;;;;;;;4916118;29;20484;-64
2022/09/19 08:05:59;;;;;;;0.65;0.45;;;;;;;;;;4915154;29;20067;-63
2022/09/19 08:08:24;;;;;;;1.90;0.68;;;;;;;;;;4915981;29;20087;-64
2022/09/19 08:10:50;;;;;;;0.50;0.50;;;;;;;;;;4916292;29;20110;-64
2022/09/19 08:13:17;;;;;;;0.47;0.47;;;;;;;;;;4916012;29;20032;-64
2022/09/19 08:15:45;;;;;;;1.25;0.80;;;;;;;;;;4916161;29;20087;-65
2022/09/19 08:18:15;;;;;;;0.57;0.57;;;;;;;;;;4916215;29;20032;-65
2022/09/19 08:20:42;;;;;;;0.63;0.63;;;;;;;;;;4915997;29;20028;-64
2022/09/19 08:23:10;;;;;;;1.40;0.70;;;;;;;;;;4915952;29;20028;-60
2022/09/19 08:25:42;;;;;;;0.52;0.52;;;;;;;;;;4915957;29;20087;-64
2022/09/19 08:28:07;;;;;;;1.02;0.60;;;;;;;;;;4916251;29;20032;-64
2022/09/19 08:30:34;;;;;;;0.90;0.60;;;;;;;;;;4915901;29;20359;-60
2022/09/19 08:33:01;;;;;;;1.38;0.80;;;;;;;;;;4914254;29;20083;-60
2022/09/19 08:35:29;;;;;;;0.85;0.85;;;;;;;;;;4913692;29;20035;-60
2022/09/19 08:37:58;;;;;;;1.13;1.10;;;;;;;;;;4913182;29;20028;-60
2022/09/19 08:40:44;;;;;;;0.90;0.90;;;;;;;;;;4914237;29;20358;-61
2022/09/19 08:43:40;;;;;;;0.95;0.90;;;;;;;;;;4912905;29;20066;-60
2022/09/19 08:46:12;;;;;;;1.05;0.95;;;;;;;;;;4911734;29;20024;-61
2022/09/19 08:48:58;;;;;;;1.38;1.27;;;;;;;;;;4912760;29;20540;-65
2022/09/19 08:51:59;;;;;;;1.13;1.10;;;;;;;;;;4934836;29;20067;-65
2022/09/19 08:54:32;;;;;;;0.80;0.80;;;;;;;;;;4934636;29;20584;-61
2022/09/19 08:56:59;;;;;;;1.38;0.93;;;;;;;;;;4935235;29;20107;-62
2022/09/19 08:59:29;;;;;;;1.08;1.00;;;;;;;;;;4934807;29;20038;-62
2022/09/19 09:02:01;;;;;;;1.30;1.20;;;;;;;;;;4935079;29;20132;-63
2022/09/19 09:04:30;;;;;;;0.90;0.90;;;;;;;;;;4934833;29;20376;-60
2022/09/19 09:07:25;;;;;;;1.08;1.00;;;;;;;;;;4934553;29;20083;-60
2022/09/19 09:10:14;;;;;;;1.67;1.20;;;;;;;;;;4902420;29;20037;-65
2022/09/19 09:13:05;;;;;;;1.35;1.25;;;;;;;;;;4937802;29;20091;-65
2022/09/19 09:15:58;;;;;;;0.93;0.90;;;;;;;;;;4922545;29;20043;-65
2022/09/19 09:18:48;;;;;;;1.30;1.20;;;;;;;;;;4915541;29;20048;-66
2022/09/19 09:21:13;;;;;;;;;;;;;;;;;;4900372;29;20029;-65
2022/09/19 09:23:42;;;;;;;1.40;1.30;;;;;;;;;;4899729;29;20328;-66
2022/09/19 09:26:18;;;;;;;1.30;1.20;;;;;;;;;;4899726;29;20040;-65
2022/09/19 09:29:11;;;;;;;1.42;1.33;;;;;;;;;;4899905;29;20033;-66
2022/09/19 09:31:54;;;;;;;2.35;1.20;;;;;;;;;;4899482;29;20107;-63
2022/09/19 09:34:47;;;;;;;3.55;1.70;;;;;;;;;;4903260;29;20485;-62
2022/09/19 09:37:56;;;;;;;1.02;1.02;;;;;;;;;;4916186;29;20481;-64
2022/09/19 09:43:17;;;;;;;1.30;1.20;;;;;;;;;;4916498;29;20043;-63
2022/09/19 09:45:45;;;;;;;1.48;1.30;;;;;;;;;;4917186;29;20528;-60
2022/09/19 09:48:31;;;;;;;1.30;1.20;;;;;;;;;;4916020;29;20496;-64
2022/09/19 09:51:11;;;;;;;1.02;1.02;;;;;;;;;;4917388;29;20063;-59
2022/09/19 09:57:10;;;;;;;1.15;1.13;;;;;;;;;;4918469;29;20092;-62
2022/09/19 10:05:50;;;;;;;1.40;1.30;;;;;;;;;;4917948;29;20042;-61
2022/09/19 10:08:28;;;;;;;2.22;1.40;;;;;;;;;;4917791;29;20040;-61
2022/09/19 10:11:20;;;;;;;1.65;1.30;;;;;;;;;;4917918;29;20035;-61
2022/09/19 10:14:01;;;;;;;2.05;1.35;;;;;;;;;;4917839;29;20119;-63
2022/09/19 10:16:32;;;;;;;2.55;1.60;;;;;;;;;;4917744;29;20528;-74
2022/09/19 10:19:13;;;;;;;3.47;1.35;;;;;;;;;;4917434;29;20036;-62
2022/09/19 10:21:40;;;;;;;1.80;1.23;;;;;;;;;;4916382;29;20028;-61
2022/09/19 10:24:43;;;;;;;1.30;1.20;;;;;;;;;;4917558;29;20043;-61
2022/09/19 10:27:16;;;;;;;1.77;1.52;;;;;;;;;;4916270;29;20115;-59
2022/09/19 10:30:19;;;;;;;1.30;1.20;;;;;;;;;;4917584;29;20051;-61
2022/09/19 10:32:46;;;;;;;1.40;1.20;;;;;;;;;;4905044;29;20063;-60
2022/09/19 10:35:31;;;;;;;2.50;1.20;;;;;;;;;;4917308;29;20477;-59
2022/09/19 10:38:13;;;;;;;1.50;1.23;;;;;;;;;;4917483;29;20805;-60
2022/09/19 10:40:51;;;;;;;3.13;1.30;;;;;;;;;;4916282;29;20424;-59
2022/09/19 10:43:44;;;;;;;1.27;1.17;;;;;;;;;;4917332;29;20099;-59
2022/09/19 10:46:17;;;;;;;2.97;1.20;;;;;;;;;;4917115;29;20044;-60
2022/09/19 10:48:56;;;;;;;1.92;1.20;;;;;;;;;;4917414;29;20032;-59
2022/09/19 10:51:24;;;;;;;1.93;1.50;;;;;;;;;;4917044;29;20035;-59
2022/09/19 10:53:56;;;;;;;1.20;1.02;;;;;;;;;;4917067;29;20032;-62
2022/09/19 10:56:32;;;;;;;2.25;1.20;;;;;;;;;;4915747;29;20052;-59
2022/09/19 10:59:08;;;;;;;1.55;1.00;;;;;;;;;;4915505;29;20379;-58
2022/09/19 11:01:34;;;;;;;1.95;1.20;;;;;;;;;;4917016;29;20028;-59
2022/09/19 11:04:21;;;;;;;2.28;1.17;;;;;;;;;;4916886;29;20027;-59
2022/09/19 11:07:02;;;;;;;1.20;1.10;;;;;;;;;;4916742;29;20040;-75
2022/09/19 11:09:37;;;;;;;1.63;1.20;;;;;;;;;;4915688;29;20028;-69
2022/09/19 11:12:12;;;;;;;28.17;2.70;;;;;;;;;;4916936;29;20036;-62
2022/09/19 11:14:44;;;;;;;6.45;1.70;;;;;;;;;;4916649;29;20032;-59
2022/09/19 11:17:31;;;;;;;14.63;1.88;;;;;;;;;;4914635;29;20063;-61
2022/09/19 11:20:11;;;;;;;1.85;1.23;;;;;;;;;;4916728;29;20024;-63
2022/09/19 11:22:50;;;;;;;2.25;1.23;;;;;;;;;;4916619;29;20484;-59
2022/09/19 11:25:41;;;;;;;4.30;1.42;;;;;;;;;;4915231;29;20048;-61
2022/09/19 11:28:24;;;;;;;5.60;1.63;;;;;;;;;;4915254;29;20042;-69
2022/09/19 11:31:07;;;;;;;5.50;2.05;;;;;;;;;;4916071;29;20377;-61
2022/09/19 11:33:38;;;;;;;12.00;2.70;;;;;;;;;;4916218;29;20127;-65
2022/09/19 11:36:27;;;;;;;6.55;1.55;;;;;;;;;;4920671;29;20375;-60
2022/09/19 11:39:22;;;;;;;8.27;1.70;;;;;;;;;;4935407;29;20038;-58
2022/09/19 11:42:12;;;;;;;3.17;1.40;;;;;;;;;;4935130;29;20031;-63
2022/09/19 11:44:56;;;;;;;11.43;1.60;;;;;;;;;;4935270;29;20082;-65
2022/09/19 11:47:28;;;;;;;8.82;1.70;;;;;;;;;;4935220;29;20030;-60
2022/09/19 11:50:09;;;;;;;4.45;1.60;;;;;;;;;;4934123;29;20043;-66
2022/09/19 11:53:20;;;;;;;5.68;1.42;;;;;;;;;;4933542;29;20679;-59
2022/09/19 11:56:06;;;;;;;2.95;1.42;;;;;;;;;;4908505;29;20052;-63
2022/09/19 11:58:32;;;;;;;6.50;1.40;;;;;;;;;;4916195;29;20107;-60
2022/09/19 12:01:07;;;;;;;3.42;1.23;;;;;;;;;;4922576;29;20032;-59
2022/09/19 12:03:43;;;;;;;4.72;1.60;;;;;;;;;;4914381;29;20481;-59
2022/09/19 12:06:28;;;;;;;6.63;1.40;;;;;;;;;;4922912;29;20079;-60
2022/09/19 12:09:05;;;;;;;3.88;1.60;;;;;;;;;;4931291;29;20035;-61
2022/09/19 12:11:49;;;;;;;3.05;1.30;;;;;;;;;;4933410;29;20058;-59
2022/09/19 12:14:23;;;;;;;2.65;1.20;;;;;;;;;;4933242;29;20075;-67
2022/09/19 12:16:55;;;;;;;11.05;1.77;;;;;;;;;;4933379;29;20031;-66
2022/09/19 12:19:33;;;;;;;5.00;1.50;;;;;;;;;;4933211;29;20063;-58
2022/09/19 12:22:22;;;;;;;2.63;1.10;;;;;;;;;;4915961;29;20035;-61
2022/09/19 12:25:01;;;;;;;4.47;1.50;;;;;;;;;;4911909;29;20490;-59
2022/09/19 12:28:06;;;;;;;6.35;1.27;;;;;;;;;;4913323;29;20378;-58
2022/09/19 12:30:40;;;;;;;2.08;1.30;;;;;;;;;;4913254;29;20044;-59
2022/09/19 12:33:14;;;;;;;4.07;1.20;;;;;;;;;;4913065;29;20474;-61
2022/09/19 12:35:49;;;;;;;4.60;1.10;;;;;;;;;;4913445;29;20107;-58
2022/09/19 12:38:26;;;;;;;3.97;1.38;;;;;;;;;;4914055;29;20088;-59
2022/09/19 12:40:56;;;;;;;2.20;1.35;;;;;;;;;;4914288;29;20119;-61
2022/09/19 12:43:38;;;;;;;3.70;1.30;;;;;;;;;;4917171;29;20036;-60
2022/09/19 12:46:56;;;;;;;2.22;1.25;;;;;;;;;;4917803;29;20032;-66
2022/09/19 12:49:45;;;;;;;2.90;1.20;;;;;;;;;;4858976;29;20030;-59
2022/09/19 12:52:25;;;;;;;1.85;1.27;;;;;;;;;;4859063;29;20225;-65
2022/09/19 12:55:03;;;;;;;2.67;1.67;;;;;;;;;;4901100;29;20055;-61
2022/09/19 12:57:57;;;;;;;1.85;1.23;;;;;;;;;;4917552;29;20039;-61
2022/09/19 13:00:22;;;;;;;4.50;1.88;;;;;;;;;;4917770;29;20040;-59
2022/09/19 13:03:08;;;;;;;6.88;1.60;;;;;;;;;;4917620;29;20138;-60
2022/09/19 13:05:39;;;;;;;3.63;1.92;;;;;;;;;;4917620;29;20344;-60
2022/09/19 13:08:34;;;;;;;5.57;1.75;;;;;;;;;;4917746;29;20028;-59
2022/09/19 13:11:25;;;;;;;2.60;1.48;;;;;;;;;;4917446;29;20032;-60
2022/09/19 13:14:21;;;;;;;5.53;1.67;;;;;;;;;;4917170;29;20040;-59
2022/09/19 13:25:28;;;;;;;3.00;1.73;;;;;;;;;;4917416;29;20527;-58
2022/09/19 13:28:20;;;;;;;3.40;1.90;;;;;;;;;;4917093;29;20035;-67
2022/09/19 13:30:51;;;;;;;2.08;1.70;;;;;;;;;;4914924;29;20048;-59
2022/09/19 13:33:45;;;;;;;1.60;1.48;;;;;;;;;;4916790;29;20485;-59
2022/09/19 13:36:22;;;;;;;2.58;1.55;;;;;;;;;;4916926;29;20068;-60
2022/09/19 13:38:55;;;;;;;2.47;1.65;;;;;;;;;;4916822;29;20036;-60
2022/09/19 13:41:21;;;;;;;2.95;2.08;;;;;;;;;;4916764;29;20544;-59
2022/09/19 13:43:54;;;;;;;2.88;1.80;;;;;;;;;;4917012;29;20040;-61
2022/09/19 13:46:39;;;;;;;2.55;1.80;;;;;;;;;;4917012;29;20028;-64
2022/09/19 13:49:45;;;;;;;2.88;2.05;;;;;;;;;;4916280;29;20385;-65
2022/09/19 13:52:41;;;;;;;2.20;1.90;;;;;;;;;;4911055;29;20039;-60
2022/09/19 13:55:13;;;;;;;4.45;2.10;;;;;;;;;;4911763;29;20036;-59
2022/09/19 13:57:43;;;;;;;4.57;2.10;;;;;;;;;;4916793;29;20485;-59
2022/09/19 14:00:32;;;;;;;2.38;1.70;;;;;;;;;;4916770;29;20032;-62
2022/09/19 14:03:03;;;;;;;3.50;1.80;;;;;;;;;;4916405;29;20094;-60
2022/09/19 14:05:34;;;;;;;1.90;1.70;;;;;;;;;;4916679;29;20119;-59
2022/09/19 14:08:01;;;;;;;1.63;1.52;;;;;;;;;;4916696;29;20031;-60
2022/09/19 14:10:53;;;;;;;3.10;1.80;;;;;;;;;;4916144;29;20357;-65
2022/09/19 14:13:24;;;;;;;1.92;1.70;;;;;;;;;;4916479;29;20044;-61
2022/09/19 14:16:30;;;;;;;3.47;1.70;;;;;;;;;;4916079;29;20028;-58
2022/09/19 14:18:57;;;;;;;3.22;1.77;;;;;;;;;;4916142;29;20032;-58
2022/09/19 14:21:26;;;;;;;2.38;1.50;;;;;;;;;;4916378;29;20043;-60
2022/09/19 14:23:58;;;;;;;2.05;1.60;;;;;;;;;;4916022;29;20039;-62
2022/09/19 14:26:48;;;;;;;2.25;1.70;;;;;;;;;;4916006;29;20493;-59
2022/09/19 14:29:19;;;;;;;;;;;;;;;;;;4916506;29;20047;-63
2022/09/19 14:32:05;;;;;;;2.65;1.50;;;;;;;;;;4915858;29;20339;-58
2022/09/19 14:35:11;;;;;;;1.92;1.73;;;;;;;;;;4915881;29;20386;-59
2022/09/19 14:38:15;;;;;;;1.80;1.70;;;;;;;;;;4916059;29;20449;-59
2022/09/19 14:41:02;;;;;;;2.10;1.80;;;;;;;;;;4900762;29;20044;-59
2022/09/19 14:44:05;;;;;;;1.90;1.70;;;;;;;;;;4914449;29;20357;-59
2022/09/19 14:46:41;;;;;;;2.33;1.60;;;;;;;;;;4915868;29;20127;-60
2022/09/19 14:49:18;;;;;;;4.07;1.70;;;;;;;;;;4915960;29;20028;-59
2022/09/19 14:52:14;;;;;;;2.08;1.45;;;;;;;;;;4915842;29;20075;-60
2022/09/19 14:55:15;;;;;;;2.38;1.80;;;;;;;;;;4913405;29;20059;-61
2022/09/19 14:57:47;;;;;;;3.13;1.70;;;;;;;;;;4910709;29;20400;-59
2022/09/19 15:00:28;;;;;;;2.25;1.90;;;;;;;;;;4922802;29;20024;-61
2022/09/19 15:02:56;;;;;;;1.65;1.55;;;;;;;;;;4934414;29;20039;-60
2022/09/19 15:05:24;;;;;;;3.58;2.00;;;;;;;;;;4933905;29;20028;-60
2022/09/19 15:07:49;;;;;;;1.75;1.60;;;;;;;;;;4933286;29;20042;-60
2022/09/19 15:10:31;;;;;;;1.70;1.60;;;;;;;;;;4931229;29;20040;-61
2022/09/19 15:13:20;;;;;;;3.40;1.80;;;;;;;;;;4933204;29;20039;-59
2022/09/19 15:15:57;;;;;;;1.85;1.60;;;;;;;;;;4923438;29;20076;-59
2022/09/19 15:18:54;;;;;;;2.35;1.70;;;;;;;;;;4922325;29;20032;-62
2022/09/19 15:21:23;;;;;;;2.72;1.70;;;;;;;;;;4922361;29;20115;-60
2022/09/19 15:23:52;;;;;;;2.38;1.60;;;;;;;;;;4922993;29;20119;-60
2022/09/19 15:26:20;;;;;;;1.70;1.60;;;;;;;;;;4921046;29;20100;-64
2022/09/19 15:29:03;;;;;;;2.25;1.77;;;;;;;;;;4921149;29;20024;-61
2022/09/19 15:31:32;;;;;;;1.85;1.55;;;;;;;;;;4917049;29;20032;-59
2022/09/19 15:34:09;;;;;;;1.65;1.55;;;;;;;;;;4915118;29;20044;-61
2022/09/19 15:36:37;;;;;;;3.28;1.60;;;;;;;;;;4913155;29;20039;-60
2022/09/19 15:39:05;;;;;;;3.08;1.55;;;;;;;;;;4913492;29;20028;-59
2022/09/19 15:41:32;;;;;;;1.80;1.50;;;;;;;;;;4913320;29;20035;-60
2022/09/19 15:44:01;;;;;;;1.50;1.40;;;;;;;;;;4909601;29;20044;-64
2022/09/19 15:46:29;;;;;;;2.67;1.60;;;;;;;;;;4911259;29;20028;-59
2022/09/19 15:49:01;;;;;;;2.05;1.25;;;;;;;;;;4913731;29;20058;-61
2022/09/19 15:51:35;;;;;;;2.08;1.50;;;;;;;;;;4912571;29;20059;-61
2022/09/19 15:54:03;;;;;;;1.73;1.42;;;;;;;;;;4897086;29;20115;-61
2022/09/19 15:56:44;;;;;;;1.88;1.40;;;;;;;;;;4897246;29;20044;-60